sensor_id;sensor_type;location;lat;lon;timestamp;pressure;altitude;pressure_sealevel;temperature;humidity
61357;BME280;47227;46.752;23.576;2023-03-01T00:00:18;97200.45;;;-0.86;87.36
61357;BME280;47227;46.752;23.576;2023-03-01T00:03:06;97197.36;;;-0.88;87.56
61357;BME280;47227;46.752;23.576;2023-03-01T00:05:33;97197.98;;;-0.89;87.71
61357;BME280;47227;46.752;23.576;2023-03-01T00:07:59;97196.96;;;-0.90;87.61
61357;BME280;47227;46.752;23.576;2023-03-01T00:10:26;97194.38;;;-0.92;87.58
61357;BME280;47227;46.752;23.576;2023-03-01T00:12:53;97191.24;;;-0.95;87.70
61357;BME280;47227;46.752;23.576;2023-03-01T00:15:19;97188.64;;;-0.98;87.66
61357;BME280;47227;46.752;23.576;2023-03-01T00:17:46;97190.25;;;-1.02;87.48
61357;BME280;47227;46.752;23.576;2023-03-01T00:20:13;97185.31;;;-1.06;87.65
61357;BME280;47227;46.752;23.576;2023-03-01T00:22:40;97184.97;;;-1.13;88.33
61357;BME280;47227;46.752;23.576;2023-03-01T00:25:08;97186.33;;;-1.18;88.03
61357;BME280;47227;46.752;23.576;2023-03-01T00:27:35;97188.38;;;-1.18;88.15
61357;BME280;47227;46.752;23.576;2023-03-01T00:30:06;97189.78;;;-1.17;88.07
61357;BME280;47227;46.752;23.576;2023-03-01T00:32:33;97192.95;;;-1.16;88.06
61357;BME280;47227;46.752;23.576;2023-03-01T00:34:59;97192.39;;;-1.10;88.18
61357;BME280;47227;46.752;23.576;2023-03-01T00:37:26;97190.20;;;-1.05;88.22
61357;BME280;47227;46.752;23.576;2023-03-01T00:39:53;97191.54;;;-1.00;88.45
61357;BME280;47227;46.752;23.576;2023-03-01T00:42:19;97190.35;;;-0.93;88.38
61357;BME280;47227;46.752;23.576;2023-03-01T00:44:46;97187.64;;;-0.84;88.59
61357;BME280;47227;46.752;23.576;2023-03-01T00:47:13;97184.83;;;-0.77;88.63
61357;BME280;47227;46.752;23.576;2023-03-01T00:49:41;97181.98;;;-0.67;88.76
61357;BME280;47227;46.752;23.576;2023-03-01T00:52:08;97178.52;;;-0.59;88.99
61357;BME280;47227;46.752;23.576;2023-03-01T00:54:34;97176.51;;;-0.52;89.04
61357;BME280;47227;46.752;23.576;2023-03-01T00:57:01;97175.13;;;-0.47;89.21
61357;BME280;47227;46.752;23.576;2023-03-01T00:59:29;97179.19;;;-0.43;89.22
61357;BME280;47227;46.752;23.576;2023-03-01T01:01:59;97181.57;;;-0.36;89.48
61357;BME280;47227;46.752;23.576;2023-03-01T01:04:26;97181.25;;;-0.26;89.50
61357;BME280;47227;46.752;23.576;2023-03-01T01:06:54;97174.07;;;-0.16;89.64
61357;BME280;47227;46.752;23.576;2023-03-01T01:09:20;97172.83;;;-0.08;89.60
61357;BME280;47227;46.752;23.576;2023-03-01T01:11:50;97170.45;;;0.00;89.66
61357;BME280;47227;46.752;23.576;2023-03-01T01:14:18;97162.52;;;0.09;89.78
61357;BME280;47227;46.752;23.576;2023-03-01T01:16:46;97160.10;;;0.19;89.92
61357;BME280;47227;46.752;23.576;2023-03-01T01:19:15;97158.54;;;0.24;89.62
61357;BME280;47227;46.752;23.576;2023-03-01T01:21:41;97151.82;;;0.25;89.12
61357;BME280;47227;46.752;23.576;2023-03-01T01:24:10;97153.09;;;0.26;88.89
61357;BME280;47227;46.752;23.576;2023-03-01T01:26:37;97152.61;;;0.25;88.66
61357;BME280;47227;46.752;23.576;2023-03-01T01:29:05;97153.14;;;0.28;88.91
61357;BME280;47227;46.752;23.576;2023-03-01T01:31:37;97148.83;;;0.28;88.97
61357;BME280;47227;46.752;23.576;2023-03-01T01:34:06;97149.02;;;0.22;88.84
61357;BME280;47227;46.752;23.576;2023-03-01T01:36:33;97147.14;;;0.19;88.80
61357;BME280;47227;46.752;23.576;2023-03-01T01:39:01;97145.48;;;0.20;88.72
61357;BME280;47227;46.752;23.576;2023-03-01T01:41:28;97146.45;;;0.18;88.62
61357;BME280;47227;46.752;23.576;2023-03-01T01:44:26;97144.59;;;0.16;88.71
61357;BME280;47227;46.752;23.576;2023-03-01T01:49:42;97144.70;;;-0.02;88.73
61357;BME280;47227;46.752;23.576;2023-03-01T01:52:17;97141.88;;;-0.09;88.94
61357;BME280;47227;46.752;23.576;2023-03-01T01:55:01;97140.33;;;-0.12;89.18
61357;BME280;47227;46.752;23.576;2023-03-01T01:57:33;97137.87;;;-0.15;89.39
61357;BME280;47227;46.752;23.576;2023-03-01T02:00:06;97133.33;;;-0.18;90.10
61357;BME280;47227;46.752;23.576;2023-03-01T02:02:40;97129.32;;;-0.19;89.86
61357;BME280;47227;46.752;23.576;2023-03-01T02:05:15;97130.34;;;-0.22;90.22
61357;BME280;47227;46.752;23.576;2023-03-01T02:07:47;97127.40;;;-0.27;90.50
61357;BME280;47227;46.752;23.576;2023-03-01T02:10:20;97126.21;;;-0.26;90.28
61357;BME280;47227;46.752;23.576;2023-03-01T02:12:47;97125.55;;;-0.21;89.99
61357;BME280;47227;46.752;23.576;2023-03-01T02:15:14;97125.48;;;-0.15;89.96
61357;BME280;47227;46.752;23.576;2023-03-01T02:17:41;97121.09;;;-0.08;89.78
61357;BME280;47227;46.752;23.576;2023-03-01T02:20:33;97122.40;;;0.01;89.89
61357;BME280;47227;46.752;23.576;2023-03-01T02:23:01;97117.79;;;0.12;89.86
61357;BME280;47227;46.752;23.576;2023-03-01T02:25:47;97115.35;;;0.23;89.90
61357;BME280;47227;46.752;23.576;2023-03-01T02:28:31;97114.64;;;0.34;90.55
61357;BME280;47227;46.752;23.576;2023-03-01T02:31:00;97113.60;;;0.44;90.30
61357;BME280;47227;46.752;23.576;2023-03-01T02:33:39;97113.21;;;0.54;90.12
61357;BME280;47227;46.752;23.576;2023-03-01T02:36:10;97113.45;;;0.63;90.01
61357;BME280;47227;46.752;23.576;2023-03-01T02:38:41;97108.17;;;0.71;89.84
61357;BME280;47227;46.752;23.576;2023-03-01T02:41:09;97108.92;;;0.75;89.54
61357;BME280;47227;46.752;23.576;2023-03-01T02:43:39;97107.27;;;0.76;89.00
61357;BME280;47227;46.752;23.576;2023-03-01T02:46:13;97105.23;;;0.77;88.90
61357;BME280;47227;46.752;23.576;2023-03-01T02:48:49;97101.58;;;0.81;88.92
61357;BME280;47227;46.752;23.576;2023-03-01T02:51:41;97102.42;;;0.83;88.83
61357;BME280;47227;46.752;23.576;2023-03-01T02:54:16;97098.52;;;0.84;88.87
61357;BME280;47227;46.752;23.576;2023-03-01T02:56:46;97100.73;;;0.82;88.66
61357;BME280;47227;46.752;23.576;2023-03-01T02:59:20;97093.41;;;0.80;88.67
61357;BME280;47227;46.752;23.576;2023-03-01T03:01:48;97088.23;;;0.74;89.20
61357;BME280;47227;46.752;23.576;2023-03-01T03:04:18;97083.53;;;0.65;89.52
61357;BME280;47227;46.752;23.576;2023-03-01T03:06:48;97082.70;;;0.61;89.60
61357;BME280;47227;46.752;23.576;2023-03-01T03:09:16;97079.13;;;0.62;90.02
61357;BME280;47227;46.752;23.576;2023-03-01T03:11:44;97078.90;;;0.57;90.13
61357;BME280;47227;46.752;23.576;2023-03-01T03:14:14;97072.48;;;0.57;90.06
61357;BME280;47227;46.752;23.576;2023-03-01T03:16:46;97072.95;;;0.54;90.15
61357;BME280;47227;46.752;23.576;2023-03-01T03:19:15;97074.14;;;0.53;90.62
61357;BME280;47227;46.752;23.576;2023-03-01T03:21:46;97072.73;;;0.49;90.93
61357;BME280;47227;46.752;23.576;2023-03-01T03:24:13;97072.89;;;0.44;91.68
61357;BME280;47227;46.752;23.576;2023-03-01T03:26:39;97072.71;;;0.37;92.29
61357;BME280;47227;46.752;23.576;2023-03-01T03:29:06;97066.73;;;0.41;91.53
61357;BME280;47227;46.752;23.576;2023-03-01T03:31:33;97069.91;;;0.46;91.21
61357;BME280;47227;46.752;23.576;2023-03-01T03:34:01;97065.42;;;0.48;91.47
61357;BME280;47227;46.752;23.576;2023-03-01T03:36:27;97067.36;;;0.49;91.20
61357;BME280;47227;46.752;23.576;2023-03-01T03:38:55;97067.52;;;0.52;90.81
61357;BME280;47227;46.752;23.576;2023-03-01T03:41:22;97063.84;;;0.54;91.12
61357;BME280;47227;46.752;23.576;2023-03-01T03:43:49;97062.86;;;0.59;91.15
61357;BME280;47227;46.752;23.576;2023-03-01T03:46:16;97064.81;;;0.68;90.93
61357;BME280;47227;46.752;23.576;2023-03-01T03:48:44;97066.64;;;0.76;90.73
61357;BME280;47227;46.752;23.576;2023-03-01T03:51:13;97065.96;;;0.84;90.53
61357;BME280;47227;46.752;23.576;2023-03-01T03:53:41;97060.94;;;0.91;90.19
61357;BME280;47227;46.752;23.576;2023-03-01T03:56:09;97057.02;;;0.94;89.99
61357;BME280;47227;46.752;23.576;2023-03-01T03:58:36;97055.90;;;0.98;89.86
61357;BME280;47227;46.752;23.576;2023-03-01T04:01:03;97056.14;;;0.89;90.45
61357;BME280;47227;46.752;23.576;2023-03-01T04:03:32;97061.24;;;0.88;90.70
61357;BME280;47227;46.752;23.576;2023-03-01T04:05:59;97062.21;;;0.95;90.46
61357;BME280;47227;46.752;23.576;2023-03-01T04:08:27;97059.29;;;0.92;90.08
61357;BME280;47227;46.752;23.576;2023-03-01T04:11:00;97054.64;;;0.90;89.76
61357;BME280;47227;46.752;23.576;2023-03-01T04:13:50;97059.71;;;0.83;89.99
61357;BME280;47227;46.752;23.576;2023-03-01T04:16:19;97059.30;;;0.87;90.01
61357;BME280;47227;46.752;23.576;2023-03-01T04:45:45;97071.70;;;0.95;89.86
61357;BME280;47227;46.752;23.576;2023-03-01T04:48:11;97071.23;;;0.94;90.69
61357;BME280;47227;46.752;23.576;2023-03-01T04:50:38;97078.77;;;0.93;90.16
61357;BME280;47227;46.752;23.576;2023-03-01T04:53:04;97084.21;;;0.94;89.90
61357;BME280;47227;46.752;23.576;2023-03-01T04:55:31;97086.63;;;0.92;90.29
61357;BME280;47227;46.752;23.576;2023-03-01T04:57:57;97087.11;;;0.93;90.36
61357;BME280;47227;46.752;23.576;2023-03-01T05:00:24;97089.60;;;0.93;90.45
61357;BME280;47227;46.752;23.576;2023-03-01T05:02:55;97094.19;;;0.96;90.19
61357;BME280;47227;46.752;23.576;2023-03-01T05:05:27;97097.16;;;0.92;90.80
61357;BME280;47227;46.752;23.576;2023-03-01T05:07:57;97098.73;;;0.92;90.87
61357;BME280;47227;46.752;23.576;2023-03-01T05:10:26;97101.09;;;0.94;90.68
61357;BME280;47227;46.752;23.576;2023-03-01T05:12:53;97108.24;;;0.99;90.20
61357;BME280;47227;46.752;23.576;2023-03-01T05:15:20;97105.14;;;1.04;89.89
61357;BME280;47227;46.752;23.576;2023-03-01T05:17:48;97100.28;;;1.14;89.77
61357;BME280;47227;46.752;23.576;2023-03-01T05:20:15;97102.48;;;1.20;89.49
61357;BME280;47227;46.752;23.576;2023-03-01T05:22:42;97102.98;;;1.28;89.39
61357;BME280;47227;46.752;23.576;2023-03-01T05:25:09;97106.35;;;1.34;89.10
61357;BME280;47227;46.752;23.576;2023-03-01T05:27:36;97108.19;;;1.41;89.22
61357;BME280;47227;46.752;23.576;2023-03-01T05:30:03;97117.98;;;1.47;89.11
61357;BME280;47227;46.752;23.576;2023-03-01T05:32:41;97115.34;;;1.54;89.05
61357;BME280;47227;46.752;23.576;2023-03-01T05:35:11;97115.59;;;1.55;88.81
61357;BME280;47227;46.752;23.576;2023-03-01T05:37:40;97111.59;;;1.54;88.57
61357;BME280;47227;46.752;23.576;2023-03-01T05:40:10;97113.35;;;1.54;88.68
61357;BME280;47227;46.752;23.576;2023-03-01T05:42:47;97119.45;;;1.58;88.74
61357;BME280;47227;46.752;23.576;2023-03-01T05:45:15;97118.14;;;1.62;88.67
61357;BME280;47227;46.752;23.576;2023-03-01T05:47:44;97119.20;;;1.63;88.24
61357;BME280;47227;46.752;23.576;2023-03-01T05:50:16;97124.81;;;1.59;88.20
61357;BME280;47227;46.752;23.576;2023-03-01T05:52:48;97125.63;;;1.58;88.12
61357;BME280;47227;46.752;23.576;2023-03-01T05:55:17;97127.20;;;1.59;88.12
61357;BME280;47227;46.752;23.576;2023-03-01T05:57:44;97125.42;;;1.61;88.39
61357;BME280;47227;46.752;23.576;2023-03-01T06:00:13;97131.48;;;1.63;88.12
61357;BME280;47227;46.752;23.576;2023-03-01T06:02:40;97127.99;;;1.63;88.09
61357;BME280;47227;46.752;23.576;2023-03-01T06:05:10;97129.74;;;1.63;87.94
61357;BME280;47227;46.752;23.576;2023-03-01T06:07:38;97130.80;;;1.64;87.93
61357;BME280;47227;46.752;23.576;2023-03-01T06:10:06;97135.05;;;1.63;88.03
61357;BME280;47227;46.752;23.576;2023-03-01T06:12:35;97135.90;;;1.65;87.73
61357;BME280;47227;46.752;23.576;2023-03-01T06:15:02;97135.80;;;1.66;87.88
61357;BME280;47227;46.752;23.576;2023-03-01T06:17:31;97139.08;;;1.66;87.99
61357;BME280;47227;46.752;23.576;2023-03-01T06:20:05;97142.42;;;1.66;87.82
61357;BME280;47227;46.752;23.576;2023-03-01T06:22:32;97147.34;;;1.67;87.86
61357;BME280;47227;46.752;23.576;2023-03-01T06:24:59;97148.50;;;1.72;87.76
61357;BME280;47227;46.752;23.576;2023-03-01T06:27:26;97141.98;;;1.77;87.59
61357;BME280;47227;46.752;23.576;2023-03-01T06:29:52;97141.34;;;1.81;87.52
61357;BME280;47227;46.752;23.576;2023-03-01T06:32:19;97141.53;;;1.84;87.10
61357;BME280;47227;46.752;23.576;2023-03-01T06:34:45;97143.65;;;1.91;87.10
61357;BME280;47227;46.752;23.576;2023-03-01T06:37:12;97144.16;;;1.99;86.95
61357;BME280;47227;46.752;23.576;2023-03-01T06:39:41;97145.01;;;2.07;86.85
61357;BME280;47227;46.752;23.576;2023-03-01T06:42:09;97146.13;;;2.15;86.68
61357;BME280;47227;46.752;23.576;2023-03-01T06:44:37;97146.44;;;2.25;86.50
61357;BME280;47227;46.752;23.576;2023-03-01T06:47:04;97149.43;;;2.32;86.09
61357;BME280;47227;46.752;23.576;2023-03-01T06:49:30;97145.56;;;2.39;85.90
61357;BME280;47227;46.752;23.576;2023-03-01T06:51:57;97151.45;;;2.43;85.55
61357;BME280;47227;46.752;23.576;2023-03-01T06:54:24;97152.83;;;2.54;86.00
61357;BME280;47227;46.752;23.576;2023-03-01T06:56:50;97149.70;;;2.64;85.59
61357;BME280;47227;46.752;23.576;2023-03-01T06:59:18;97148.88;;;2.66;84.75
61357;BME280;47227;46.752;23.576;2023-03-01T07:01:44;97149.35;;;2.69;84.72
61357;BME280;47227;46.752;23.576;2023-03-01T07:04:12;97148.38;;;2.73;84.41
61357;BME280;47227;46.752;23.576;2023-03-01T07:06:39;97146.53;;;2.74;83.82
61357;BME280;47227;46.752;23.576;2023-03-01T07:09:05;97146.34;;;2.74;83.78
61357;BME280;47227;46.752;23.576;2023-03-01T07:11:32;97142.29;;;2.78;83.91
61357;BME280;47227;46.752;23.576;2023-03-01T07:13:59;97143.65;;;2.84;84.02
61357;BME280;47227;46.752;23.576;2023-03-01T07:16:29;97137.10;;;2.87;83.49
61357;BME280;47227;46.752;23.576;2023-03-01T07:18:58;97144.48;;;2.88;83.13
61357;BME280;47227;46.752;23.576;2023-03-01T07:21:43;97139.02;;;2.92;83.26
61357;BME280;47227;46.752;23.576;2023-03-01T07:24:31;97138.48;;;2.99;83.47
61357;BME280;47227;46.752;23.576;2023-03-01T07:27:06;97133.90;;;3.05;83.11
61357;BME280;47227;46.752;23.576;2023-03-01T07:29:36;97134.08;;;3.09;82.82
61357;BME280;47227;46.752;23.576;2023-03-01T07:32:09;97136.27;;;3.15;82.68
61357;BME280;47227;46.752;23.576;2023-03-01T07:36:12;97127.85;;;3.27;82.78
61357;BME280;47227;46.752;23.576;2023-03-01T07:38:53;97130.64;;;3.38;83.22
61357;BME280;47227;46.752;23.576;2023-03-01T07:42:04;97122.52;;;3.47;82.55
61357;BME280;47227;46.752;23.576;2023-03-01T07:44:42;97122.36;;;3.53;81.75
61357;BME280;47227;46.752;23.576;2023-03-01T07:47:44;97114.36;;;3.65;81.72
61357;BME280;47227;46.752;23.576;2023-03-01T07:51:45;97108.52;;;3.78;81.74
61357;BME280;47227;46.752;23.576;2023-03-01T07:55:29;97112.09;;;3.99;80.23
61357;BME280;47227;46.752;23.576;2023-03-01T07:58:09;97115.51;;;4.15;80.27
61357;BME280;47227;46.752;23.576;2023-03-01T08:06:41;97106.98;;;4.40;77.80
61357;BME280;47227;46.752;23.576;2023-03-01T08:09:29;97105.73;;;4.43;76.40
61357;BME280;47227;46.752;23.576;2023-03-01T08:12:15;97107.88;;;4.51;76.98
61357;BME280;47227;46.752;23.576;2023-03-01T08:15:11;97107.13;;;4.59;76.07
61357;BME280;47227;46.752;23.576;2023-03-01T08:17:48;97107.30;;;4.69;76.17
61357;BME280;47227;46.752;23.576;2023-03-01T08:20:15;97103.77;;;4.87;76.69
61357;BME280;47227;46.752;23.576;2023-03-01T08:22:48;97101.52;;;5.05;77.28
61357;BME280;47227;46.752;23.576;2023-03-01T08:25:17;97098.07;;;5.17;75.56
61357;BME280;47227;46.752;23.576;2023-03-01T08:27:44;97090.85;;;5.27;75.31
61357;BME280;47227;46.752;23.576;2023-03-01T08:30:22;97089.28;;;5.20;73.83
61357;BME280;47227;46.752;23.576;2023-03-01T08:34:06;97084.05;;;5.24;73.55
61357;BME280;47227;46.752;23.576;2023-03-01T08:37:13;97084.96;;;5.29;73.32
61357;BME280;47227;46.752;23.576;2023-03-01T08:39:47;97085.27;;;5.45;73.65
61357;BME280;47227;46.752;23.576;2023-03-01T08:42:24;97079.02;;;5.55;73.25
61357;BME280;47227;46.752;23.576;2023-03-01T08:44:52;97078.50;;;5.55;72.26
61357;BME280;47227;46.752;23.576;2023-03-01T08:47:22;97077.89;;;5.62;72.71
61357;BME280;47227;46.752;23.576;2023-03-01T08:50:09;97074.96;;;5.78;72.10
61357;BME280;47227;46.752;23.576;2023-03-01T08:52:51;97076.46;;;5.85;72.09
61357;BME280;47227;46.752;23.576;2023-03-01T08:55:20;97074.42;;;5.87;71.21
61357;BME280;47227;46.752;23.576;2023-03-01T08:57:49;97070.13;;;6.05;71.37
61357;BME280;47227;46.752;23.576;2023-03-01T09:00:30;97069.57;;;6.23;71.72
61357;BME280;47227;46.752;23.576;2023-03-01T09:03:24;97070.30;;;6.35;69.66
61357;BME280;47227;46.752;23.576;2023-03-01T09:06:18;97067.77;;;6.35;69.10
61357;BME280;47227;46.752;23.576;2023-03-01T09:08:47;97068.46;;;6.54;69.71
61357;BME280;47227;46.752;23.576;2023-03-01T09:11:21;97064.67;;;6.77;70.55
61357;BME280;47227;46.752;23.576;2023-03-01T09:14:20;97060.92;;;7.04;69.42
61357;BME280;47227;46.752;23.576;2023-03-01T09:16:47;97062.20;;;7.06;67.10
61357;BME280;47227;46.752;23.576;2023-03-01T09:19:18;97061.80;;;7.15;67.12
61357;BME280;47227;46.752;23.576;2023-03-01T09:21:50;97058.92;;;7.13;66.12
61357;BME280;47227;46.752;23.576;2023-03-01T09:24:21;97056.41;;;7.16;66.11
61357;BME280;47227;46.752;23.576;2023-03-01T09:26:53;97056.03;;;7.36;66.64
61357;BME280;47227;46.752;23.576;2023-03-01T09:29:20;97051.92;;;7.57;66.93
61357;BME280;47227;46.752;23.576;2023-03-01T09:31:47;97050.55;;;7.59;64.68
61357;BME280;47227;46.752;23.576;2023-03-01T09:34:19;97049.13;;;7.67;65.49
61357;BME280;47227;46.752;23.576;2023-03-01T09:36:51;97046.50;;;7.85;64.65
61357;BME280;47227;46.752;23.576;2023-03-01T09:39:24;97042.84;;;7.93;62.63
61357;BME280;47227;46.752;23.576;2023-03-01T09:42:02;97040.41;;;8.08;63.48
61357;BME280;47227;46.752;23.576;2023-03-01T09:44:59;97035.64;;;7.87;62.40
61357;BME280;47227;46.752;23.576;2023-03-01T09:56:52;97028.42;;;8.52;63.36
61357;BME280;47227;46.752;23.576;2023-03-01T10:03:36;97026.04;;;8.74;62.83
61357;BME280;47227;46.752;23.576;2023-03-01T11:06:58;96983.66;;;12.56;48.97
61357;BME280;47227;46.752;23.576;2023-03-01T11:09:33;96979.08;;;12.76;48.52
61357;BME280;47227;46.752;23.576;2023-03-01T11:12:33;96979.02;;;13.08;48.37
61357;BME280;47227;46.752;23.576;2023-03-01T11:15:27;96974.52;;;13.25;47.87
61357;BME280;47227;46.752;23.576;2023-03-01T11:19:16;96970.64;;;13.34;46.00
61357;BME280;47227;46.752;23.576;2023-03-01T11:21:58;96963.88;;;13.48;44.95
61357;BME280;47227;46.752;23.576;2023-03-01T11:24:41;96962.09;;;13.72;46.21
61357;BME280;47227;46.752;23.576;2023-03-01T11:27:26;96960.07;;;13.85;45.31
61357;BME280;47227;46.752;23.576;2023-03-01T11:30:01;96955.41;;;14.03;43.94
61357;BME280;47227;46.752;23.576;2023-03-01T11:33:07;96950.54;;;14.16;43.14
61357;BME280;47227;46.752;23.576;2023-03-01T12:02:35;96921.21;;;16.10;39.30
61357;BME280;47227;46.752;23.576;2023-03-01T12:12:37;96908.73;;;15.30;38.31
61357;BME280;47227;46.752;23.576;2023-03-01T12:15:48;96907.51;;;15.26;38.56
61357;BME280;47227;46.752;23.576;2023-03-01T12:19:03;96906.67;;;14.76;38.99
61357;BME280;47227;46.752;23.576;2023-03-01T12:29:16;96894.58;;;15.35;39.08
61357;BME280;47227;46.752;23.576;2023-03-01T12:32:13;96894.30;;;15.25;38.29
61357;BME280;47227;46.752;23.576;2023-03-01T12:35:16;96889.53;;;15.22;38.16
61357;BME280;47227;46.752;23.576;2023-03-01T12:38:32;96887.04;;;15.59;37.91
61357;BME280;47227;46.752;23.576;2023-03-01T12:41:26;96887.16;;;15.78;37.59
61357;BME280;47227;46.752;23.576;2023-03-01T12:49:13;96885.00;;;15.93;37.40
61357;BME280;47227;46.752;23.576;2023-03-01T12:52:53;96883.56;;;14.94;38.89
61357;BME280;47227;46.752;23.576;2023-03-01T12:56:02;96879.58;;;15.51;37.20
61357;BME280;47227;46.752;23.576;2023-03-01T12:58:41;96866.34;;;16.05;36.76
61357;BME280;47227;46.752;23.576;2023-03-01T13:02:09;96873.15;;;16.62;35.69
61357;BME280;47227;46.752;23.576;2023-03-01T13:05:42;96877.98;;;17.28;35.68
61357;BME280;47227;46.752;23.576;2023-03-01T13:09:06;96875.34;;;17.95;35.07
61357;BME280;47227;46.752;23.576;2023-03-01T13:12:50;96866.95;;;18.30;33.47
61357;BME280;47227;46.752;23.576;2023-03-01T13:15:52;96865.17;;;17.78;33.19
61357;BME280;47227;46.752;23.576;2023-03-01T13:19:20;96859.64;;;17.97;31.66
61357;BME280;47227;46.752;23.576;2023-03-01T13:23:09;96859.94;;;18.45;32.65
61357;BME280;47227;46.752;23.576;2023-03-01T13:26:16;96855.64;;;18.98;31.02
61357;BME280;47227;46.752;23.576;2023-03-01T13:29:57;96852.29;;;19.21;30.46
61357;BME280;47227;46.752;23.576;2023-03-01T13:33:48;96849.67;;;19.32;30.19
61357;BME280;47227;46.752;23.576;2023-03-01T13:46:20;96848.30;;;17.92;33.38
61357;BME280;47227;46.752;23.576;2023-03-01T13:50:25;96846.03;;;18.62;32.65
61357;BME280;47227;46.752;23.576;2023-03-01T13:58:53;96843.23;;;17.96;33.67
61357;BME280;47227;46.752;23.576;2023-03-01T14:32:55;96821.42;;;19.74;31.12
61357;BME280;47227;46.752;23.576;2023-03-01T14:35:41;96819.52;;;19.79;31.18
61357;BME280;47227;46.752;23.576;2023-03-01T14:38:58;96821.66;;;19.69;30.60
61357;BME280;47227;46.752;23.576;2023-03-01T14:41:35;96817.71;;;19.76;30.84
61357;BME280;47227;46.752;23.576;2023-03-01T14:44:21;96817.73;;;19.81;30.77
61357;BME280;47227;46.752;23.576;2023-03-01T14:46:54;96817.66;;;19.72;31.22
61357;BME280;47227;46.752;23.576;2023-03-01T14:49:25;96812.65;;;19.46;31.40
61357;BME280;47227;46.752;23.576;2023-03-01T14:52:02;96804.17;;;19.47;31.71
61357;BME280;47227;46.752;23.576;2023-03-01T14:54:44;96803.30;;;19.28;31.51
61357;BME280;47227;46.752;23.576;2023-03-01T14:57:23;96803.34;;;19.22;31.53
61357;BME280;47227;46.752;23.576;2023-03-01T15:00:39;96805.88;;;19.13;31.80
61357;BME280;47227;46.752;23.576;2023-03-01T15:03:25;96802.71;;;19.32;32.20
61357;BME280;47227;46.752;23.576;2023-03-01T15:05:55;96803.04;;;19.21;31.83
61357;BME280;47227;46.752;23.576;2023-03-01T15:08:25;96801.32;;;19.09;31.81
61357;BME280;47227;46.752;23.576;2023-03-01T15:11:27;96802.08;;;19.00;31.59
61357;BME280;47227;46.752;23.576;2023-03-01T15:13:56;96804.69;;;18.80;31.89
61357;BME280;47227;46.752;23.576;2023-03-01T15:16:32;96802.67;;;18.16;32.73
61357;BME280;47227;46.752;23.576;2023-03-01T15:19:04;96801.34;;;17.08;34.59
61357;BME280;47227;46.752;23.576;2023-03-01T15:21:35;96795.61;;;15.87;37.03
61357;BME280;47227;46.752;23.576;2023-03-01T15:24:24;96795.27;;;15.05;38.85
61357;BME280;47227;46.752;23.576;2023-03-01T15:26:56;96799.06;;;14.27;39.88
61357;BME280;47227;46.752;23.576;2023-03-01T15:29:28;96799.96;;;13.71;41.22
61357;BME280;47227;46.752;23.576;2023-03-01T15:32:24;96804.02;;;13.17;42.89
61357;BME280;47227;46.752;23.576;2023-03-01T15:34:56;96800.27;;;12.73;43.13
61357;BME280;47227;46.752;23.576;2023-03-01T15:37:46;96797.46;;;12.42;43.62
61357;BME280;47227;46.752;23.576;2023-03-01T15:40:21;96799.08;;;11.95;45.15
61357;BME280;47227;46.752;23.576;2023-03-01T15:42:52;96795.09;;;11.49;47.61
61357;BME280;47227;46.752;23.576;2023-03-01T15:45:25;96790.84;;;11.16;48.28
61357;BME280;47227;46.752;23.576;2023-03-01T15:47:58;96791.23;;;10.71;49.81
61357;BME280;47227;46.752;23.576;2023-03-01T15:50:42;96789.90;;;10.37;50.89
61357;BME280;47227;46.752;23.576;2023-03-01T15:53:15;96791.86;;;10.13;50.65
61357;BME280;47227;46.752;23.576;2023-03-01T15:55:47;96792.91;;;9.90;50.79
61357;BME280;47227;46.752;23.576;2023-03-01T15:58:37;96798.21;;;9.66;51.94
61357;BME280;47227;46.752;23.576;2023-03-01T16:01:26;96804.40;;;9.41;51.78
61357;BME280;47227;46.752;23.576;2023-03-01T16:04:05;96810.71;;;9.12;53.29
61357;BME280;47227;46.752;23.576;2023-03-01T16:06:34;96814.75;;;8.86;54.61
61357;BME280;47227;46.752;23.576;2023-03-01T16:09:05;96812.46;;;8.58;55.08
61357;BME280;47227;46.752;23.576;2023-03-01T16:11:45;96810.40;;;8.34;55.77
61357;BME280;47227;46.752;23.576;2023-03-01T16:14:18;96811.93;;;8.09;57.16
61357;BME280;47227;46.752;23.576;2023-03-01T16:17:21;96816.83;;;7.87;55.33
61357;BME280;47227;46.752;23.576;2023-03-01T16:20:19;96815.77;;;7.67;57.19
61357;BME280;47227;46.752;23.576;2023-03-01T16:23:00;96812.85;;;7.38;59.35
61357;BME280;47227;46.752;23.576;2023-03-01T16:25:32;96815.97;;;7.17;59.10
61357;BME280;47227;46.752;23.576;2023-03-01T16:30:57;96815.02;;;6.81;60.98
61357;BME280;47227;46.752;23.576;2023-03-01T16:33:28;96812.78;;;6.67;62.00
61357;BME280;47227;46.752;23.576;2023-03-01T16:36:08;96813.37;;;6.53;62.84
61357;BME280;47227;46.752;23.576;2023-03-01T16:38:40;96819.27;;;6.32;64.17
61357;BME280;47227;46.752;23.576;2023-03-01T16:41:13;96820.85;;;6.19;62.70
61357;BME280;47227;46.752;23.576;2023-03-01T16:43:47;96821.41;;;6.07;61.95
61357;BME280;47227;46.752;23.576;2023-03-01T16:46:20;96823.06;;;5.94;62.54
61357;BME280;47227;46.752;23.576;2023-03-01T16:48:49;96828.52;;;5.83;61.02
61357;BME280;47227;46.752;23.576;2023-03-01T16:51:18;96828.73;;;5.74;60.71
61357;BME280;47227;46.752;23.576;2023-03-01T16:53:48;96831.88;;;5.64;60.81
61357;BME280;47227;46.752;23.576;2023-03-01T16:56:17;96829.14;;;5.53;62.50
61357;BME280;47227;46.752;23.576;2023-03-01T16:58:46;96830.27;;;5.42;62.06
61357;BME280;47227;46.752;23.576;2023-03-01T17:01:54;96827.83;;;5.32;62.60
61357;BME280;47227;46.752;23.576;2023-03-01T17:04:53;96831.02;;;5.19;62.00
61357;BME280;47227;46.752;23.576;2023-03-01T17:07:22;96829.23;;;5.12;62.19
61357;BME280;47227;46.752;23.576;2023-03-01T17:09:54;96824.36;;;5.05;61.94
61357;BME280;47227;46.752;23.576;2023-03-01T17:17:23;96825.62;;;4.86;62.39
61357;BME280;47227;46.752;23.576;2023-03-01T17:35:29;96818.77;;;4.14;65.70
61357;BME280;47227;46.752;23.576;2023-03-01T17:38:02;96820.08;;;4.08;64.16
61357;BME280;47227;46.752;23.576;2023-03-01T17:41:28;96823.17;;;4.04;64.29